キエフ/ボリースピリ の空港の天気 - METARとTAF

ボリースピリ国際空港(キエフ) ( UKBB / KBP ) - ウクライナ ボリスピリ (キエフ近郊)
飛行場実況気象(Metar)
観測時間01/21 20:00 EET (01/21 18:00 UTC)
風向・風速東 3m/s
視程250m
天気現象氷霧
全天を覆う雲 鉛直視程 30m
気温-8℃
湿度100%
気圧1014hPa
METARUKBB 211800Z 09003MPS 040V100 0250 R36R/0375N R36L/0250V0400 FZFG VV001 M08/M08 Q1014 R88/811045 NOSIG
過去の天気等 Google飛行場航空写真 Wunderground天気予報

過去48時間のMETAR

飛行場予報(TAF)
発表時間: 1/21 19:01 EET (1/21 17:01 UTC)
予報対象時間: 21日20時 EET ~ 22日20時 EET
風向・風速不定 2m/s
視程300m
天気現象氷霧
全天を覆う雲 鉛直視程 30m
21日20時 EET ~ 22日11時 EET に一時的に
視程1,500m
天気現象もや
全天の8割程度の雲 雲底高度 180m
22日11時 EET ~ 22日12時 EET に徐々に
風向・風速北東 4m/s
視程4,000m
天気現象もや
全天の8割程度の雲 雲底高度 180m
22日12時 EET ~ 22日17時 EET に一時的に
風向・風速北北東 4m/s 瞬間風速 9m/s
視程1,500m
天気現象しゅう雪 もや
全天の8割程度の雲 雲底高度 150m
全天の4割程度の積乱雲 雲底高度 460m
TAF UKBB 211701Z 2118/2218 VRB02MPS 0300 FZFG VV001
TEMPO 2118/2209 1500 BR BKN006
BECMG 2209/2210 05004MPS 4000 BR BKN006
TEMPO 2210/2215 02004G09MPS 1500 SHSN BR BKN005 SCT015CB TXM04/2212Z TNM12/2205Z